sensor_id;sensor_type;location;lat;lon;timestamp;P1;durP1;ratioP1;P2;durP2;ratioP2
62903;SDS011;49000;50.698;13.322;2023-03-04T00:01:12;68.67;;;16.07;;
62903;SDS011;49000;50.698;13.322;2023-03-04T00:03:38;64.27;;;15.27;;
62903;SDS011;49000;50.698;13.322;2023-03-04T00:06:03;53.07;;;15.03;;
62903;SDS011;49000;50.698;13.322;2023-03-04T00:08:29;65.90;;;16.17;;
62903;SDS011;49000;50.698;13.322;2023-03-04T00:10:55;55.93;;;15.83;;
62903;SDS011;49000;50.698;13.322;2023-03-04T00:13:20;55.17;;;15.73;;
62903;SDS011;49000;50.698;13.322;2023-03-04T00:15:46;48.97;;;15.37;;
62903;SDS011;49000;50.698;13.322;2023-03-04T00:18:13;43.17;;;15.40;;
62903;SDS011;49000;50.698;13.322;2023-03-04T00:20:38;63.23;;;15.83;;
62903;SDS011;49000;50.698;13.322;2023-03-04T00:23:04;97.60;;;16.97;;
62903;SDS011;49000;50.698;13.322;2023-03-04T00:25:30;44.53;;;14.73;;
62903;SDS011;49000;50.698;13.322;2023-03-04T00:27:55;59.00;;;15.47;;
62903;SDS011;49000;50.698;13.322;2023-03-04T00:30:22;36.60;;;13.60;;
62903;SDS011;49000;50.698;13.322;2023-03-04T00:32:48;48.43;;;15.40;;
62903;SDS011;49000;50.698;13.322;2023-03-04T00:35:13;54.53;;;14.57;;
62903;SDS011;49000;50.698;13.322;2023-03-04T00:37:39;51.27;;;15.13;;
62903;SDS011;49000;50.698;13.322;2023-03-04T00:40:05;47.57;;;14.70;;
62903;SDS011;49000;50.698;13.322;2023-03-04T00:42:31;65.20;;;16.43;;
62903;SDS011;49000;50.698;13.322;2023-03-04T00:44:56;45.80;;;14.97;;
62903;SDS011;49000;50.698;13.322;2023-03-04T00:47:22;46.93;;;15.60;;
62903;SDS011;49000;50.698;13.322;2023-03-04T00:49:47;53.70;;;15.87;;
62903;SDS011;49000;50.698;13.322;2023-03-04T00:52:13;44.60;;;15.73;;
62903;SDS011;49000;50.698;13.322;2023-03-04T00:54:38;40.17;;;14.77;;
62903;SDS011;49000;50.698;13.322;2023-03-04T00:57:04;45.43;;;14.67;;
62903;SDS011;49000;50.698;13.322;2023-03-04T00:59:29;42.17;;;14.17;;
62903;SDS011;49000;50.698;13.322;2023-03-04T01:01:55;52.43;;;16.33;;
62903;SDS011;49000;50.698;13.322;2023-03-04T01:04:20;37.37;;;15.07;;
62903;SDS011;49000;50.698;13.322;2023-03-04T01:06:46;47.27;;;16.87;;
62903;SDS011;49000;50.698;13.322;2023-03-04T01:09:11;43.13;;;14.87;;
62903;SDS011;49000;50.698;13.322;2023-03-04T01:11:37;36.37;;;14.83;;
62903;SDS011;49000;50.698;13.322;2023-03-04T01:14:02;44.00;;;15.27;;
62903;SDS011;49000;50.698;13.322;2023-03-04T01:16:27;47.33;;;15.17;;
62903;SDS011;49000;50.698;13.322;2023-03-04T01:18:53;50.77;;;15.17;;
62903;SDS011;49000;50.698;13.322;2023-03-04T01:21:18;42.23;;;15.13;;
62903;SDS011;49000;50.698;13.322;2023-03-04T01:23:44;44.07;;;13.77;;
62903;SDS011;49000;50.698;13.322;2023-03-04T01:26:09;41.07;;;13.87;;
62903;SDS011;49000;50.698;13.322;2023-03-04T01:28:35;43.20;;;14.13;;
62903;SDS011;49000;50.698;13.322;2023-03-04T01:31:01;45.97;;;13.80;;
62903;SDS011;49000;50.698;13.322;2023-03-04T01:33:27;34.83;;;14.00;;
62903;SDS011;49000;50.698;13.322;2023-03-04T01:35:53;38.10;;;13.73;;
62903;SDS011;49000;50.698;13.322;2023-03-04T01:38:19;36.33;;;12.83;;
62903;SDS011;49000;50.698;13.322;2023-03-04T01:40:44;34.93;;;13.60;;
62903;SDS011;49000;50.698;13.322;2023-03-04T01:43:12;34.40;;;12.77;;
62903;SDS011;49000;50.698;13.322;2023-03-04T01:45:43;31.63;;;12.93;;
62903;SDS011;49000;50.698;13.322;2023-03-04T01:48:09;41.23;;;12.97;;
62903;SDS011;49000;50.698;13.322;2023-03-04T01:50:39;34.87;;;13.40;;
62903;SDS011;49000;50.698;13.322;2023-03-04T01:53:05;33.07;;;13.73;;
62903;SDS011;49000;50.698;13.322;2023-03-04T01:55:30;37.73;;;13.33;;
62903;SDS011;49000;50.698;13.322;2023-03-04T01:57:56;35.03;;;13.60;;
62903;SDS011;49000;50.698;13.322;2023-03-04T02:00:23;27.73;;;12.73;;
62903;SDS011;49000;50.698;13.322;2023-03-04T02:02:50;33.33;;;12.43;;
62903;SDS011;49000;50.698;13.322;2023-03-04T02:05:19;29.47;;;12.60;;
62903;SDS011;49000;50.698;13.322;2023-03-04T02:07:45;27.67;;;11.80;;
62903;SDS011;49000;50.698;13.322;2023-03-04T02:10:11;29.87;;;12.33;;
62903;SDS011;49000;50.698;13.322;2023-03-04T02:12:37;31.47;;;13.17;;
62903;SDS011;49000;50.698;13.322;2023-03-04T02:15:02;28.53;;;12.93;;
62903;SDS011;49000;50.698;13.322;2023-03-04T02:17:30;33.70;;;13.30;;
62903;SDS011;49000;50.698;13.322;2023-03-04T02:20:02;35.23;;;12.73;;
62903;SDS011;49000;50.698;13.322;2023-03-04T02:22:31;33.87;;;13.07;;
62903;SDS011;49000;50.698;13.322;2023-03-04T02:25:07;29.67;;;12.77;;
62903;SDS011;49000;50.698;13.322;2023-03-04T02:27:38;30.33;;;12.03;;
62903;SDS011;49000;50.698;13.322;2023-03-04T02:30:03;27.77;;;12.37;;
62903;SDS011;49000;50.698;13.322;2023-03-04T02:32:29;26.50;;;11.80;;
62903;SDS011;49000;50.698;13.322;2023-03-04T02:34:55;27.47;;;11.20;;
62903;SDS011;49000;50.698;13.322;2023-03-04T02:37:20;27.67;;;11.87;;
62903;SDS011;49000;50.698;13.322;2023-03-04T02:39:46;27.47;;;11.30;;
62903;SDS011;49000;50.698;13.322;2023-03-04T02:42:13;29.27;;;12.00;;
62903;SDS011;49000;50.698;13.322;2023-03-04T02:44:40;30.10;;;13.00;;
62903;SDS011;49000;50.698;13.322;2023-03-04T02:47:10;25.90;;;11.80;;
62903;SDS011;49000;50.698;13.322;2023-03-04T02:49:39;27.50;;;11.97;;
62903;SDS011;49000;50.698;13.322;2023-03-04T02:54:31;22.90;;;11.40;;
62903;SDS011;49000;50.698;13.322;2023-03-04T02:56:58;24.60;;;11.97;;
62903;SDS011;49000;50.698;13.322;2023-03-04T02:59:25;29.17;;;12.17;;
62903;SDS011;49000;50.698;13.322;2023-03-04T03:01:51;24.43;;;11.83;;
62903;SDS011;49000;50.698;13.322;2023-03-04T03:04:17;23.23;;;11.43;;
62903;SDS011;49000;50.698;13.322;2023-03-04T03:06:43;23.40;;;10.97;;
62903;SDS011;49000;50.698;13.322;2023-03-04T03:09:09;30.03;;;11.97;;
62903;SDS011;49000;50.698;13.322;2023-03-04T03:11:35;27.10;;;12.43;;
62903;SDS011;49000;50.698;13.322;2023-03-04T03:14:00;25.60;;;11.97;;
62903;SDS011;49000;50.698;13.322;2023-03-04T03:16:26;26.97;;;12.07;;
62903;SDS011;49000;50.698;13.322;2023-03-04T03:18:52;27.17;;;12.63;;
62903;SDS011;49000;50.698;13.322;2023-03-04T03:21:17;26.87;;;11.30;;
62903;SDS011;49000;50.698;13.322;2023-03-04T03:23:43;23.30;;;11.43;;
62903;SDS011;49000;50.698;13.322;2023-03-04T03:26:08;22.10;;;11.30;;
62903;SDS011;49000;50.698;13.322;2023-03-04T03:28:34;29.40;;;11.20;;
62903;SDS011;49000;50.698;13.322;2023-03-04T03:30:59;25.40;;;11.73;;
62903;SDS011;49000;50.698;13.322;2023-03-04T03:33:25;23.67;;;11.17;;
62903;SDS011;49000;50.698;13.322;2023-03-04T03:35:50;26.87;;;10.00;;
62903;SDS011;49000;50.698;13.322;2023-03-04T03:38:16;24.43;;;11.00;;
62903;SDS011;49000;50.698;13.322;2023-03-04T03:40:41;30.37;;;11.17;;
62903;SDS011;49000;50.698;13.322;2023-03-04T03:43:07;27.90;;;11.13;;
62903;SDS011;49000;50.698;13.322;2023-03-04T03:45:32;19.23;;;9.23;;
62903;SDS011;49000;50.698;13.322;2023-03-04T03:47:58;28.90;;;10.60;;
62903;SDS011;49000;50.698;13.322;2023-03-04T03:50:23;24.43;;;10.43;;
62903;SDS011;49000;50.698;13.322;2023-03-04T03:52:49;22.33;;;9.87;;
62903;SDS011;49000;50.698;13.322;2023-03-04T03:55:14;24.77;;;10.43;;
62903;SDS011;49000;50.698;13.322;2023-03-04T03:57:40;26.90;;;10.80;;
62903;SDS011;49000;50.698;13.322;2023-03-04T04:00:06;25.50;;;11.27;;
62903;SDS011;49000;50.698;13.322;2023-03-04T04:02:32;30.93;;;11.67;;
62903;SDS011;49000;50.698;13.322;2023-03-04T04:04:58;32.90;;;11.13;;
62903;SDS011;49000;50.698;13.322;2023-03-04T04:07:23;48.33;;;12.20;;
62903;SDS011;49000;50.698;13.322;2023-03-04T04:09:49;38.97;;;12.33;;
62903;SDS011;49000;50.698;13.322;2023-03-04T04:12:14;28.93;;;11.13;;
62903;SDS011;49000;50.698;13.322;2023-03-04T04:14:41;46.87;;;13.07;;
62903;SDS011;49000;50.698;13.322;2023-03-04T04:17:08;41.43;;;13.13;;
62903;SDS011;49000;50.698;13.322;2023-03-04T04:19:34;33.53;;;11.97;;
62903;SDS011;49000;50.698;13.322;2023-03-04T04:22:00;37.90;;;11.20;;
62903;SDS011;49000;50.698;13.322;2023-03-04T04:24:26;35.47;;;14.33;;
62903;SDS011;49000;50.698;13.322;2023-03-04T04:26:51;37.93;;;13.67;;
62903;SDS011;49000;50.698;13.322;2023-03-04T04:29:17;36.43;;;13.77;;
62903;SDS011;49000;50.698;13.322;2023-03-04T04:31:42;38.57;;;13.43;;
62903;SDS011;49000;50.698;13.322;2023-03-04T04:34:08;32.07;;;12.80;;
62903;SDS011;49000;50.698;13.322;2023-03-04T04:36:34;30.57;;;12.67;;
62903;SDS011;49000;50.698;13.322;2023-03-04T04:38:59;33.60;;;13.03;;
62903;SDS011;49000;50.698;13.322;2023-03-04T04:41:26;34.73;;;12.67;;
62903;SDS011;49000;50.698;13.322;2023-03-04T04:43:55;34.13;;;13.30;;
62903;SDS011;49000;50.698;13.322;2023-03-04T04:46:21;31.93;;;13.03;;
62903;SDS011;49000;50.698;13.322;2023-03-04T04:48:47;35.20;;;14.43;;
62903;SDS011;49000;50.698;13.322;2023-03-04T04:51:12;29.33;;;13.77;;
62903;SDS011;49000;50.698;13.322;2023-03-04T04:53:38;27.40;;;12.37;;
62903;SDS011;49000;50.698;13.322;2023-03-04T04:56:08;30.23;;;13.30;;
62903;SDS011;49000;50.698;13.322;2023-03-04T04:58:37;31.87;;;13.63;;
62903;SDS011;49000;50.698;13.322;2023-03-04T05:01:03;29.00;;;13.83;;
62903;SDS011;49000;50.698;13.322;2023-03-04T05:03:29;33.20;;;13.30;;
62903;SDS011;49000;50.698;13.322;2023-03-04T05:05:55;33.77;;;13.50;;
62903;SDS011;49000;50.698;13.322;2023-03-04T05:08:21;34.57;;;14.20;;
62903;SDS011;49000;50.698;13.322;2023-03-04T05:10:46;31.10;;;14.07;;
62903;SDS011;49000;50.698;13.322;2023-03-04T05:13:12;24.73;;;13.03;;
62903;SDS011;49000;50.698;13.322;2023-03-04T05:15:37;26.53;;;12.93;;
62903;SDS011;49000;50.698;13.322;2023-03-04T05:18:03;29.23;;;13.80;;
62903;SDS011;49000;50.698;13.322;2023-03-04T05:20:28;29.67;;;14.27;;
62903;SDS011;49000;50.698;13.322;2023-03-04T05:22:54;28.03;;;13.73;;
62903;SDS011;49000;50.698;13.322;2023-03-04T05:25:20;27.27;;;13.90;;
62903;SDS011;49000;50.698;13.322;2023-03-04T05:27:45;23.83;;;12.20;;
62903;SDS011;49000;50.698;13.322;2023-03-04T05:30:11;26.90;;;14.40;;
62903;SDS011;49000;50.698;13.322;2023-03-04T05:32:37;31.23;;;14.10;;
62903;SDS011;49000;50.698;13.322;2023-03-04T05:35:02;29.57;;;13.73;;
62903;SDS011;49000;50.698;13.322;2023-03-04T05:37:28;27.30;;;13.27;;
62903;SDS011;49000;50.698;13.322;2023-03-04T05:39:53;29.40;;;14.63;;
62903;SDS011;49000;50.698;13.322;2023-03-04T05:42:19;30.83;;;13.10;;
62903;SDS011;49000;50.698;13.322;2023-03-04T05:44:44;27.20;;;13.60;;
62903;SDS011;49000;50.698;13.322;2023-03-04T05:47:10;29.17;;;13.13;;
62903;SDS011;49000;50.698;13.322;2023-03-04T05:49:35;24.53;;;13.47;;
62903;SDS011;49000;50.698;13.322;2023-03-04T05:52:01;24.43;;;12.63;;
62903;SDS011;49000;50.698;13.322;2023-03-04T05:54:26;25.13;;;12.47;;
62903;SDS011;49000;50.698;13.322;2023-03-04T05:56:52;27.87;;;14.73;;
62903;SDS011;49000;50.698;13.322;2023-03-04T05:59:18;33.73;;;14.83;;
62903;SDS011;49000;50.698;13.322;2023-03-04T06:01:44;33.90;;;15.43;;
62903;SDS011;49000;50.698;13.322;2023-03-04T06:04:10;32.10;;;14.77;;
62903;SDS011;49000;50.698;13.322;2023-03-04T06:06:36;29.00;;;15.33;;
62903;SDS011;49000;50.698;13.322;2023-03-04T06:09:02;31.43;;;16.10;;
62903;SDS011;49000;50.698;13.322;2023-03-04T06:11:27;34.00;;;15.57;;
62903;SDS011;49000;50.698;13.322;2023-03-04T06:13:53;30.00;;;15.37;;
62903;SDS011;49000;50.698;13.322;2023-03-04T06:16:18;33.90;;;15.70;;
62903;SDS011;49000;50.698;13.322;2023-03-04T06:18:44;31.47;;;15.17;;
62903;SDS011;49000;50.698;13.322;2023-03-04T06:21:09;35.27;;;17.20;;
62903;SDS011;49000;50.698;13.322;2023-03-04T06:23:35;40.87;;;16.67;;
62903;SDS011;49000;50.698;13.322;2023-03-04T06:26:00;39.87;;;17.17;;
62903;SDS011;49000;50.698;13.322;2023-03-04T06:28:26;41.90;;;17.90;;
62903;SDS011;49000;50.698;13.322;2023-03-04T06:30:52;40.50;;;17.53;;
62903;SDS011;49000;50.698;13.322;2023-03-04T06:33:19;37.50;;;16.87;;
62903;SDS011;49000;50.698;13.322;2023-03-04T06:35:45;41.50;;;16.47;;
62903;SDS011;49000;50.698;13.322;2023-03-04T06:38:11;36.70;;;17.03;;
62903;SDS011;49000;50.698;13.322;2023-03-04T06:40:37;33.30;;;15.60;;
62903;SDS011;49000;50.698;13.322;2023-03-04T06:43:02;33.83;;;15.27;;
62903;SDS011;49000;50.698;13.322;2023-03-04T06:45:28;29.53;;;14.97;;
62903;SDS011;49000;50.698;13.322;2023-03-04T06:47:53;28.10;;;14.17;;
62903;SDS011;49000;50.698;13.322;2023-03-04T06:50:19;33.43;;;14.67;;
62903;SDS011;49000;50.698;13.322;2023-03-04T06:52:44;25.73;;;13.20;;
62903;SDS011;49000;50.698;13.322;2023-03-04T06:55:10;25.77;;;13.97;;
62903;SDS011;49000;50.698;13.322;2023-03-04T06:57:37;29.20;;;13.87;;
62903;SDS011;49000;50.698;13.322;2023-03-04T07:00:03;26.17;;;12.80;;
62903;SDS011;49000;50.698;13.322;2023-03-04T07:02:29;24.73;;;12.07;;
62903;SDS011;49000;50.698;13.322;2023-03-04T07:04:55;26.30;;;11.47;;
62903;SDS011;49000;50.698;13.322;2023-03-04T07:07:20;27.27;;;11.37;;
62903;SDS011;49000;50.698;13.322;2023-03-04T07:09:46;28.10;;;12.20;;
62903;SDS011;49000;50.698;13.322;2023-03-04T07:12:12;23.30;;;11.20;;
62903;SDS011;49000;50.698;13.322;2023-03-04T07:14:37;27.77;;;11.33;;
62903;SDS011;49000;50.698;13.322;2023-03-04T07:17:03;22.27;;;11.00;;
62903;SDS011;49000;50.698;13.322;2023-03-04T07:19:28;27.47;;;11.60;;
62903;SDS011;49000;50.698;13.322;2023-03-04T07:21:54;26.43;;;11.63;;
62903;SDS011;49000;50.698;13.322;2023-03-04T07:24:19;22.47;;;9.93;;
62903;SDS011;49000;50.698;13.322;2023-03-04T07:26:45;28.47;;;11.17;;
62903;SDS011;49000;50.698;13.322;2023-03-04T07:29:11;20.97;;;10.50;;
62903;SDS011;49000;50.698;13.322;2023-03-04T07:31:36;22.70;;;9.93;;
62903;SDS011;49000;50.698;13.322;2023-03-04T07:34:03;21.97;;;10.23;;
62903;SDS011;49000;50.698;13.322;2023-03-04T07:36:31;22.50;;;9.53;;
62903;SDS011;49000;50.698;13.322;2023-03-04T07:38:57;19.77;;;10.10;;
62903;SDS011;49000;50.698;13.322;2023-03-04T07:41:23;24.63;;;10.47;;
62903;SDS011;49000;50.698;13.322;2023-03-04T07:43:50;22.93;;;10.67;;
62903;SDS011;49000;50.698;13.322;2023-03-04T07:46:16;24.50;;;10.23;;
62903;SDS011;49000;50.698;13.322;2023-03-04T07:48:43;18.43;;;9.90;;
62903;SDS011;49000;50.698;13.322;2023-03-04T07:51:10;21.00;;;9.93;;
62903;SDS011;49000;50.698;13.322;2023-03-04T07:53:41;20.60;;;10.13;;
62903;SDS011;49000;50.698;13.322;2023-03-04T07:56:10;23.13;;;9.73;;
62903;SDS011;49000;50.698;13.322;2023-03-04T07:58:37;22.23;;;10.20;;
62903;SDS011;49000;50.698;13.322;2023-03-04T08:01:09;22.80;;;10.33;;
62903;SDS011;49000;50.698;13.322;2023-03-04T08:03:36;22.30;;;9.13;;
62903;SDS011;49000;50.698;13.322;2023-03-04T08:06:03;22.87;;;9.10;;
62903;SDS011;49000;50.698;13.322;2023-03-04T08:08:29;24.40;;;9.97;;
62903;SDS011;49000;50.698;13.322;2023-03-04T08:10:55;22.73;;;8.83;;
62903;SDS011;49000;50.698;13.322;2023-03-04T08:13:20;24.00;;;11.67;;
62903;SDS011;49000;50.698;13.322;2023-03-04T08:15:46;15.47;;;8.77;;
62903;SDS011;49000;50.698;13.322;2023-03-04T08:18:12;19.47;;;9.63;;
62903;SDS011;49000;50.698;13.322;2023-03-04T08:20:40;17.73;;;9.00;;
62903;SDS011;49000;50.698;13.322;2023-03-04T08:23:07;19.53;;;9.80;;
62903;SDS011;49000;50.698;13.322;2023-03-04T08:25:33;21.47;;;9.67;;
62903;SDS011;49000;50.698;13.322;2023-03-04T08:27:58;17.63;;;9.47;;
62903;SDS011;49000;50.698;13.322;2023-03-04T08:30:24;19.43;;;9.43;;
62903;SDS011;49000;50.698;13.322;2023-03-04T08:32:49;23.77;;;9.20;;
62903;SDS011;49000;50.698;13.322;2023-03-04T08:35:14;18.33;;;8.23;;
62903;SDS011;49000;50.698;13.322;2023-03-04T08:37:40;19.13;;;8.60;;
62903;SDS011;49000;50.698;13.322;2023-03-04T08:40:06;19.17;;;9.30;;
62903;SDS011;49000;50.698;13.322;2023-03-04T08:42:32;16.90;;;8.80;;
62903;SDS011;49000;50.698;13.322;2023-03-04T08:44:57;17.47;;;9.00;;
62903;SDS011;49000;50.698;13.322;2023-03-04T08:47:23;19.93;;;8.00;;
62903;SDS011;49000;50.698;13.322;2023-03-04T08:49:48;21.37;;;9.33;;
62903;SDS011;49000;50.698;13.322;2023-03-04T08:52:14;22.57;;;8.63;;
62903;SDS011;49000;50.698;13.322;2023-03-04T08:54:39;26.23;;;9.03;;
62903;SDS011;49000;50.698;13.322;2023-03-04T08:57:05;14.93;;;8.00;;
62903;SDS011;49000;50.698;13.322;2023-03-04T08:59:31;19.30;;;8.17;;
62903;SDS011;49000;50.698;13.322;2023-03-04T09:01:57;15.03;;;7.47;;
62903;SDS011;49000;50.698;13.322;2023-03-04T09:04:22;14.20;;;7.53;;
62903;SDS011;49000;50.698;13.322;2023-03-04T09:06:48;14.80;;;7.83;;
62903;SDS011;49000;50.698;13.322;2023-03-04T09:09:13;13.40;;;6.83;;
62903;SDS011;49000;50.698;13.322;2023-03-04T09:11:39;14.30;;;6.93;;
62903;SDS011;49000;50.698;13.322;2023-03-04T09:14:04;15.50;;;6.90;;
62903;SDS011;49000;50.698;13.322;2023-03-04T09:16:30;16.90;;;7.43;;
62903;SDS011;49000;50.698;13.322;2023-03-04T09:18:55;18.27;;;6.90;;
62903;SDS011;49000;50.698;13.322;2023-03-04T09:21:21;12.13;;;6.13;;
62903;SDS011;49000;50.698;13.322;2023-03-04T09:23:47;14.10;;;6.00;;
62903;SDS011;49000;50.698;13.322;2023-03-04T09:26:17;14.80;;;6.47;;
62903;SDS011;49000;50.698;13.322;2023-03-04T09:28:49;11.47;;;5.90;;
62903;SDS011;49000;50.698;13.322;2023-03-04T09:31:15;12.30;;;5.67;;
62903;SDS011;49000;50.698;13.322;2023-03-04T09:33:41;10.43;;;5.57;;
62903;SDS011;49000;50.698;13.322;2023-03-04T09:36:08;9.40;;;5.43;;
62903;SDS011;49000;50.698;13.322;2023-03-04T09:38:34;10.33;;;5.23;;
62903;SDS011;49000;50.698;13.322;2023-03-04T09:41:03;12.90;;;5.40;;
62903;SDS011;49000;50.698;13.322;2023-03-04T09:43:34;12.57;;;5.17;;
62903;SDS011;49000;50.698;13.322;2023-03-04T09:46:02;13.40;;;5.57;;
62903;SDS011;49000;50.698;13.322;2023-03-04T09:48:35;16.37;;;5.23;;
62903;SDS011;49000;50.698;13.322;2023-03-04T09:51:16;11.30;;;5.53;;
62903;SDS011;49000;50.698;13.322;2023-03-04T09:53:58;11.20;;;4.53;;
62903;SDS011;49000;50.698;13.322;2023-03-04T09:56:26;11.00;;;5.00;;
62903;SDS011;49000;50.698;13.322;2023-03-04T09:58:56;10.40;;;4.80;;
62903;SDS011;49000;50.698;13.322;2023-03-04T10:01:48;11.90;;;5.20;;
62903;SDS011;49000;50.698;13.322;2023-03-04T10:04:28;11.13;;;4.57;;
62903;SDS011;49000;50.698;13.322;2023-03-04T10:07:05;9.77;;;4.77;;
62903;SDS011;49000;50.698;13.322;2023-03-04T10:09:42;11.17;;;4.27;;
62903;SDS011;49000;50.698;13.322;2023-03-04T10:12:29;9.20;;;4.10;;
62903;SDS011;49000;50.698;13.322;2023-03-04T10:14:59;14.37;;;3.87;;
62903;SDS011;49000;50.698;13.322;2023-03-04T10:17:35;9.10;;;4.00;;
62903;SDS011;49000;50.698;13.322;2023-03-04T10:20:10;8.03;;;3.77;;
62903;SDS011;49000;50.698;13.322;2023-03-04T10:22:44;9.87;;;4.43;;
62903;SDS011;49000;50.698;13.322;2023-03-04T10:25:15;10.90;;;4.37;;
62903;SDS011;49000;50.698;13.322;2023-03-04T10:27:50;11.33;;;4.03;;
62903;SDS011;49000;50.698;13.322;2023-03-04T10:33:18;7.07;;;3.77;;
62903;SDS011;49000;50.698;13.322;2023-03-04T10:35:47;7.70;;;3.60;;
62903;SDS011;49000;50.698;13.322;2023-03-04T10:38:17;8.20;;;3.53;;
62903;SDS011;49000;50.698;13.322;2023-03-04T10:40:44;7.63;;;3.70;;
62903;SDS011;49000;50.698;13.322;2023-03-04T10:43:14;7.73;;;3.97;;
62903;SDS011;49000;50.698;13.322;2023-03-04T10:45:41;9.17;;;3.17;;
62903;SDS011;49000;50.698;13.322;2023-03-04T10:48:08;6.23;;;2.83;;
62903;SDS011;49000;50.698;13.322;2023-03-04T10:50:43;10.43;;;3.40;;
62903;SDS011;49000;50.698;13.322;2023-03-04T10:53:17;8.53;;;3.37;;
62903;SDS011;49000;50.698;13.322;2023-03-04T10:55:49;7.30;;;3.20;;
62903;SDS011;49000;50.698;13.322;2023-03-04T10:58:15;6.63;;;3.77;;
62903;SDS011;49000;50.698;13.322;2023-03-04T11:00:44;6.97;;;3.20;;
62903;SDS011;49000;50.698;13.322;2023-03-04T11:06:02;6.97;;;3.37;;
62903;SDS011;49000;50.698;13.322;2023-03-04T11:08:57;8.97;;;3.57;;
62903;SDS011;49000;50.698;13.322;2023-03-04T11:11:24;8.07;;;3.73;;
62903;SDS011;49000;50.698;13.322;2023-03-04T11:13:54;7.63;;;3.57;;
62903;SDS011;49000;50.698;13.322;2023-03-04T11:16:26;7.70;;;3.70;;
62903;SDS011;49000;50.698;13.322;2023-03-04T11:18:54;9.10;;;4.13;;
62903;SDS011;49000;50.698;13.322;2023-03-04T11:21:28;6.47;;;3.23;;
62903;SDS011;49000;50.698;13.322;2023-03-04T11:23:56;6.20;;;2.83;;
62903;SDS011;49000;50.698;13.322;2023-03-04T11:26:38;6.93;;;3.57;;
62903;SDS011;49000;50.698;13.322;2023-03-04T11:29:15;7.10;;;3.10;;
62903;SDS011;49000;50.698;13.322;2023-03-04T11:31:47;6.27;;;3.13;;
62903;SDS011;49000;50.698;13.322;2023-03-04T11:36:56;4.80;;;2.80;;
62903;SDS011;49000;50.698;13.322;2023-03-04T11:39:33;5.83;;;3.30;;
62903;SDS011;49000;50.698;13.322;2023-03-04T11:42:20;7.40;;;2.70;;
62903;SDS011;49000;50.698;13.322;2023-03-04T11:44:56;9.70;;;3.37;;
62903;SDS011;49000;50.698;13.322;2023-03-04T11:50:22;11.33;;;3.97;;
62903;SDS011;49000;50.698;13.322;2023-03-04T11:53:00;7.53;;;3.13;;
62903;SDS011;49000;50.698;13.322;2023-03-04T11:55:57;7.57;;;3.40;;
62903;SDS011;49000;50.698;13.322;2023-03-04T12:01:25;7.37;;;3.50;;
62903;SDS011;49000;50.698;13.322;2023-03-04T12:04:04;10.07;;;4.23;;
62903;SDS011;49000;50.698;13.322;2023-03-04T12:06:54;11.07;;;4.23;;
62903;SDS011;49000;50.698;13.322;2023-03-04T12:20:25;9.13;;;3.57;;
62903;SDS011;49000;50.698;13.322;2023-03-04T12:29:03;7.33;;;3.33;;
62903;SDS011;49000;50.698;13.322;2023-03-04T12:31:38;10.07;;;4.00;;
62903;SDS011;49000;50.698;13.322;2023-03-04T12:34:21;11.07;;;3.60;;
62903;SDS011;49000;50.698;13.322;2023-03-04T12:37:16;13.63;;;3.30;;
62903;SDS011;49000;50.698;13.322;2023-03-04T12:43:01;9.60;;;3.43;;
62903;SDS011;49000;50.698;13.322;2023-03-04T12:51:16;6.87;;;3.43;;
62903;SDS011;49000;50.698;13.322;2023-03-04T12:54:09;10.83;;;3.73;;
62903;SDS011;49000;50.698;13.322;2023-03-04T12:56:55;6.93;;;3.30;;
62903;SDS011;49000;50.698;13.322;2023-03-04T12:59:25;8.37;;;3.60;;
62903;SDS011;49000;50.698;13.322;2023-03-04T13:08:02;9.33;;;3.37;;
62903;SDS011;49000;50.698;13.322;2023-03-04T13:10:32;7.83;;;3.10;;
62903;SDS011;49000;50.698;13.322;2023-03-04T13:12:58;7.17;;;3.13;;
62903;SDS011;49000;50.698;13.322;2023-03-04T13:25:42;7.07;;;3.13;;
62903;SDS011;49000;50.698;13.322;2023-03-04T13:28:35;6.87;;;2.80;;
62903;SDS011;49000;50.698;13.322;2023-03-04T13:37:28;9.00;;;2.73;;
62903;SDS011;49000;50.698;13.322;2023-03-04T13:42:44;5.93;;;2.87;;
62903;SDS011;49000;50.698;13.322;2023-03-04T13:45:30;5.40;;;2.90;;
62903;SDS011;49000;50.698;13.322;2023-03-04T13:47:58;5.80;;;2.40;;
62903;SDS011;49000;50.698;13.322;2023-03-04T13:50:26;10.60;;;4.60;;
62903;SDS011;49000;50.698;13.322;2023-03-04T13:53:18;4.50;;;2.67;;
62903;SDS011;49000;50.698;13.322;2023-03-04T13:56:04;5.70;;;2.40;;
62903;SDS011;49000;50.698;13.322;2023-03-04T13:58:36;6.30;;;2.60;;
62903;SDS011;49000;50.698;13.322;2023-03-04T14:01:03;4.23;;;2.40;;
62903;SDS011;49000;50.698;13.322;2023-03-04T14:03:29;5.90;;;2.73;;
62903;SDS011;49000;50.698;13.322;2023-03-04T14:08:43;6.93;;;2.90;;
62903;SDS011;49000;50.698;13.322;2023-03-04T14:11:44;5.77;;;2.57;;
62903;SDS011;49000;50.698;13.322;2023-03-04T14:14:06;6.70;;;3.17;;
62903;SDS011;49000;50.698;13.322;2023-03-04T14:16:40;5.10;;;2.80;;
62903;SDS011;49000;50.698;13.322;2023-03-04T14:19:27;5.20;;;2.47;;
62903;SDS011;49000;50.698;13.322;2023-03-04T14:21:54;4.87;;;2.20;;
62903;SDS011;49000;50.698;13.322;2023-03-04T14:24:21;8.47;;;2.27;;
62903;SDS011;49000;50.698;13.322;2023-03-04T14:26:47;4.50;;;2.17;;
62903;SDS011;49000;50.698;13.322;2023-03-04T14:29:24;5.37;;;2.57;;
62903;SDS011;49000;50.698;13.322;2023-03-04T14:31:52;5.80;;;2.70;;
62903;SDS011;49000;50.698;13.322;2023-03-04T14:34:29;6.20;;;2.27;;
62903;SDS011;49000;50.698;13.322;2023-03-04T14:37:00;3.80;;;2.20;;
62903;SDS011;49000;50.698;13.322;2023-03-04T14:39:28;4.17;;;2.23;;
62903;SDS011;49000;50.698;13.322;2023-03-04T14:41:57;4.83;;;2.27;;
62903;SDS011;49000;50.698;13.322;2023-03-04T14:44:31;7.80;;;2.40;;
62903;SDS011;49000;50.698;13.322;2023-03-04T14:47:06;8.67;;;2.30;;
62903;SDS011;49000;50.698;13.322;2023-03-04T14:49:39;3.37;;;2.07;;
62903;SDS011;49000;50.698;13.322;2023-03-04T14:52:05;4.63;;;1.80;;
62903;SDS011;49000;50.698;13.322;2023-03-04T14:57:48;2.90;;;1.90;;
62903;SDS011;49000;50.698;13.322;2023-03-04T15:00:32;5.13;;;2.20;;
62903;SDS011;49000;50.698;13.322;2023-03-04T15:03:01;5.33;;;2.00;;
62903;SDS011;49000;50.698;13.322;2023-03-04T15:05:46;3.03;;;1.57;;
62903;SDS011;49000;50.698;13.322;2023-03-04T15:08:19;3.60;;;1.60;;
62903;SDS011;49000;50.698;13.322;2023-03-04T15:10:55;6.83;;;1.90;;
62903;SDS011;49000;50.698;13.322;2023-03-04T15:16:06;3.30;;;1.90;;
62903;SDS011;49000;50.698;13.322;2023-03-04T15:18:32;4.57;;;2.20;;
62903;SDS011;49000;50.698;13.322;2023-03-04T15:21:02;2.70;;;1.43;;
62903;SDS011;49000;50.698;13.322;2023-03-04T15:23:30;3.07;;;1.83;;
62903;SDS011;49000;50.698;13.322;2023-03-04T15:25:57;3.67;;;1.90;;
62903;SDS011;49000;50.698;13.322;2023-03-04T15:28:26;3.77;;;2.00;;
62903;SDS011;49000;50.698;13.322;2023-03-04T15:30:56;7.83;;;2.10;;
62903;SDS011;49000;50.698;13.322;2023-03-04T15:33:22;4.60;;;1.67;;
62903;SDS011;49000;50.698;13.322;2023-03-04T15:35:51;4.50;;;1.80;;
62903;SDS011;49000;50.698;13.322;2023-03-04T15:38:20;5.83;;;2.33;;
62903;SDS011;49000;50.698;13.322;2023-03-04T15:40:46;3.60;;;2.03;;
62903;SDS011;49000;50.698;13.322;2023-03-04T15:43:13;3.60;;;2.20;;